Time;durP1;ratioP1;P1;durP2;ratioP2;P2;SDS_P1;SDS_P2;PMS_P1;PMS_P2;Temp;Humidity;BMP_temperature;BMP_pressure;BME280_temperature;BME280_humidity;BME280_pressure;Samples;Min_cycle;Max_cycle;Signal;HPM_P1;HPM_P2
2023/10/01 00:00:06;;;;;;;4.37;2.07;;;;;;;;;;4995455;28;20525;-70
2023/10/01 00:02:33;;;;;;;6.63;3.20;;;;;;;;;;5011694;28;20557;-69
2023/10/01 00:05:01;;;;;;;3.80;1.90;;;;;;;;;;5014431;28;20793;-69
2023/10/01 00:07:29;;;;;;;4.93;2.40;;;;;;;;;;4999649;28;20445;-70
2023/10/01 00:09:56;;;;;;;4.47;2.50;;;;;;;;;;4994688;28;20488;-69
2023/10/01 00:12:23;;;;;;;6.73;2.97;;;;;;;;;;4998179;28;20459;-70
2023/10/01 00:14:52;;;;;;;5.83;2.60;;;;;;;;;;4998483;28;20444;-70
2023/10/01 00:17:21;;;;;;;6.10;2.67;;;;;;;;;;4995480;28;20449;-70
2023/10/01 00:19:48;;;;;;;4.43;2.30;;;;;;;;;;4994625;28;20457;-70
2023/10/01 00:22:17;;;;;;;4.23;1.93;;;;;;;;;;4994516;28;20437;-70
2023/10/01 00:24:46;;;;;;;6.50;2.60;;;;;;;;;;4993851;28;20457;-70
2023/10/01 00:27:14;;;;;;;4.60;2.33;;;;;;;;;;4995445;28;20445;-70
2023/10/01 00:29:41;;;;;;;4.27;2.53;;;;;;;;;;5014413;28;20834;-70
2023/10/01 00:32:08;;;;;;;6.60;2.60;;;;;;;;;;4993416;28;20445;-71
2023/10/01 00:34:36;;;;;;;3.90;2.80;;;;;;;;;;4994875;28;20795;-71
2023/10/01 00:37:03;;;;;;;7.67;3.20;;;;;;;;;;4994909;28;20445;-70
2023/10/01 00:39:30;;;;;;;5.23;2.10;;;;;;;;;;4994579;28;20453;-70
2023/10/01 00:41:59;;;;;;;6.67;2.87;;;;;;;;;;4998520;28;20526;-70
2023/10/01 00:44:26;;;;;;;4.57;2.43;;;;;;;;;;5010780;28;20449;-70
2023/10/01 00:46:53;;;;;;;3.97;2.50;;;;;;;;;;4994411;28;20943;-70
2023/10/01 00:49:22;;;;;;;4.70;2.67;;;;;;;;;;4994564;28;20484;-71
2023/10/01 00:51:51;;;;;;;4.47;1.80;;;;;;;;;;4994084;28;20449;-70
2023/10/01 00:54:18;;;;;;;4.57;2.47;;;;;;;;;;4994430;28;20445;-69
2023/10/01 00:56:45;;;;;;;7.43;3.10;;;;;;;;;;4995261;28;20449;-69
2023/10/01 00:59:14;;;;;;;8.10;3.50;;;;;;;;;;5012657;28;20486;-70
2023/10/01 01:01:41;;;;;;;5.40;2.40;;;;;;;;;;4999582;28;20507;-70
2023/10/01 01:04:19;;;;;;;4.63;2.83;;;;;;;;;;4994436;28;20445;-70
2023/10/01 01:06:47;;;;;;;5.50;2.60;;;;;;;;;;4994576;28;20791;-70
2023/10/01 01:09:15;;;;;;;5.83;3.23;;;;;;;;;;4993912;28;20575;-70
2023/10/01 01:11:42;;;;;;;5.23;2.70;;;;;;;;;;4993900;28;20460;-70
2023/10/01 01:14:11;;;;;;;7.07;3.20;;;;;;;;;;4995915;28;20480;-70
2023/10/01 01:16:40;;;;;;;4.00;2.50;;;;;;;;;;4977466;28;20492;-70
2023/10/01 01:19:09;;;;;;;5.03;2.93;;;;;;;;;;4990414;28;20456;-70
2023/10/01 01:21:39;;;;;;;5.77;2.70;;;;;;;;;;4993671;28;20944;-70
2023/10/01 01:24:08;;;;;;;6.80;2.83;;;;;;;;;;4994035;28;20429;-70
2023/10/01 01:26:37;;;;;;;6.30;3.43;;;;;;;;;;5003850;28;20859;-70
2023/10/01 01:29:16;;;;;;;10.83;2.53;;;;;;;;;;5013319;28;20490;-70
2023/10/01 01:31:45;;;;;;;3.10;1.67;;;;;;;;;;4998998;28;20444;-69
2023/10/01 01:34:13;;;;;;;5.43;2.27;;;;;;;;;;4993166;28;20487;-70
2023/10/01 01:36:42;;;;;;;2.90;1.80;;;;;;;;;;4993680;28;20523;-69
2023/10/01 01:39:26;;;;;;;5.60;2.07;;;;;;;;;;4993073;28;20500;-69
2023/10/01 01:41:54;;;;;;;9.67;3.00;;;;;;;;;;4996901;28;20429;-70
2023/10/01 01:44:23;;;;;;;5.43;2.77;;;;;;;;;;4993260;28;21013;-70
2023/10/01 01:46:59;;;;;;;5.17;3.10;;;;;;;;;;4992062;28;20889;-70
2023/10/01 01:49:27;;;;;;;6.27;2.57;;;;;;;;;;4992811;28;21002;-72
2023/10/01 01:52:03;;;;;;;10.93;3.23;;;;;;;;;;4992976;28;20480;-70
2023/10/01 01:54:34;;;;;;;5.90;2.63;;;;;;;;;;4993619;28;20437;-70
2023/10/01 01:57:03;;;;;;;5.83;2.80;;;;;;;;;;5012377;28;20887;-69
2023/10/01 01:59:31;;;;;;;5.23;2.43;;;;;;;;;;5014301;28;20460;-70
2023/10/01 02:01:59;;;;;;;12.33;2.87;;;;;;;;;;4998509;28;20468;-70
2023/10/01 02:04:26;;;;;;;3.97;2.53;;;;;;;;;;4994598;28;20525;-69
2023/10/01 02:06:54;;;;;;;5.43;2.27;;;;;;;;;;4993930;28;20449;-69
2023/10/01 02:09:24;;;;;;;6.53;2.50;;;;;;;;;;4992520;28;20495;-71
2023/10/01 02:11:54;;;;;;;5.03;2.43;;;;;;;;;;4992451;28;20471;-69
2023/10/01 02:14:35;;;;;;;4.30;2.40;;;;;;;;;;4994082;28;20433;-70
2023/10/01 02:17:13;;;;;;;7.30;2.10;;;;;;;;;;5001594;28;20441;-70
2023/10/01 02:19:40;;;;;;;9.93;2.80;;;;;;;;;;4992833;28;20888;-69
2023/10/01 02:22:08;;;;;;;6.47;2.17;;;;;;;;;;4992587;28;20472;-70
2023/10/01 02:24:44;;;;;;;5.80;2.70;;;;;;;;;;4994106;28;20548;-70
2023/10/01 02:27:14;;;;;;;7.93;2.40;;;;;;;;;;5009842;28;20444;-70
2023/10/01 02:30:11;;;;;;;5.30;2.73;;;;;;;;;;5011523;28;20487;-70
2023/10/01 02:32:35;;;;;;;4.13;2.67;;;;;;;;;;4986932;28;20467;-70
2023/10/01 02:35:33;;;;;;;4.03;2.10;;;;;;;;;;4992046;28;20938;-69
2023/10/01 02:37:50;;;;;;;7.50;2.60;;;;;;;;;;4992229;28;20469;-70
2023/10/01 02:40:18;;;;;;;7.00;3.00;;;;;;;;;;5004570;28;20483;-69
2023/10/01 02:42:49;;;;;;;4.70;2.30;;;;;;;;;;4991641;28;20817;-69
2023/10/01 02:45:30;;;;;;;8.33;2.37;;;;;;;;;;4991800;28;20449;-70
2023/10/01 02:50:38;;;;;;;5.70;2.90;;;;;;;;;;4991547;28;20471;-70
2023/10/01 02:53:05;;;;;;;5.20;2.13;;;;;;;;;;4992365;28;20448;-70
2023/10/01 02:55:32;;;;;;;3.70;2.50;;;;;;;;;;5004804;28;20851;-70
2023/10/01 02:58:17;;;;;;;4.17;2.10;;;;;;;;;;4999819;28;20470;-69
2023/10/01 03:00:44;;;;;;;4.13;1.77;;;;;;;;;;5004018;28;20452;-70
2023/10/01 03:03:15;;;;;;;6.77;3.63;;;;;;;;;;4999520;28;20459;-71
2023/10/01 03:05:44;;;;;;;3.83;2.03;;;;;;;;;;5011844;28;20443;-71
2023/10/01 03:08:41;;;;;;;6.03;3.10;;;;;;;;;;5010380;28;20455;-70
2023/10/01 03:11:02;;;;;;;5.60;2.73;;;;;;;;;;5004848;28;20473;-70
2023/10/01 03:13:31;;;;;;;4.47;2.30;;;;;;;;;;5009830;28;20444;-71
2023/10/01 03:18:45;;;;;;;5.30;2.50;;;;;;;;;;4991946;28;20439;-70
2023/10/01 03:21:18;;;;;;;7.17;2.60;;;;;;;;;;4991532;28;20807;-70
2023/10/01 03:23:52;;;;;;;7.50;3.30;;;;;;;;;;4995226;28;20452;-70
2023/10/01 03:26:19;;;;;;;4.47;2.50;;;;;;;;;;4979099;28;21026;-70
2023/10/01 03:31:32;;;;;;;5.77;2.50;;;;;;;;;;4991630;28;20425;-69
2023/10/01 03:33:59;;;;;;;7.13;2.70;;;;;;;;;;4991028;28;20444;-70
2023/10/01 03:36:28;;;;;;;8.10;2.93;;;;;;;;;;4991779;28;20441;-70
2023/10/01 03:39:07;;;;;;;9.77;3.07;;;;;;;;;;5001906;28;20480;-70
2023/10/01 03:41:52;;;;;;;6.57;2.57;;;;;;;;;;5000936;28;20532;-70
2023/10/01 03:45:19;;;;;;;7.00;2.93;;;;;;;;;;4991433;28;20437;-70
2023/10/01 03:47:08;;;;;;;3.93;2.10;;;;;;;;;;4991391;28;20471;-70
2023/10/01 03:49:40;;;;;;;6.30;3.10;;;;;;;;;;4991503;28;21003;-69
2023/10/01 03:52:09;;;;;;;9.57;2.53;;;;;;;;;;4991391;28;20442;-70
2023/10/01 03:57:18;;;;;;;5.90;2.90;;;;;;;;;;5011236;28;20482;-70
2023/10/01 03:59:51;;;;;;;8.20;3.00;;;;;;;;;;5014183;28;20946;-70
2023/10/01 04:02:28;;;;;;;5.60;3.10;;;;;;;;;;4998660;28;20433;-70
2023/10/01 04:04:58;;;;;;;4.90;3.17;;;;;;;;;;4995219;28;20448;-70
2023/10/01 04:07:40;;;;;;;4.97;2.73;;;;;;;;;;4999968;28;20454;-70
2023/10/01 04:10:13;;;;;;;6.43;3.50;;;;;;;;;;4997557;28;20493;-69
2023/10/01 04:12:44;;;;;;;4.83;2.83;;;;;;;;;;4994707;28;20445;-70
2023/10/01 04:15:27;;;;;;;5.77;2.20;;;;;;;;;;4995280;28;20464;-71
2023/10/01 04:20:36;;;;;;;5.00;2.63;;;;;;;;;;4993874;28;20420;-70
2023/10/01 04:23:04;;;;;;;7.87;3.20;;;;;;;;;;5000648;28;20547;-71
2023/10/01 04:25:38;;;;;;;8.73;3.47;;;;;;;;;;5014399;28;20523;-70
2023/10/01 04:28:08;;;;;;;7.90;3.00;;;;;;;;;;5010976;28;20456;-70
2023/10/01 04:30:37;;;;;;;5.93;3.20;;;;;;;;;;4996656;28;20480;-71
2023/10/01 04:33:16;;;;;;;5.87;2.83;;;;;;;;;;4994818;28;20499;-71
2023/10/01 04:35:51;;;;;;;4.10;2.40;;;;;;;;;;4994913;28;20451;-70
2023/10/01 04:38:19;;;;;;;5.23;3.97;;;;;;;;;;4994112;28;20460;-71
2023/10/01 04:40:48;;;;;;;5.17;3.33;;;;;;;;;;4994256;28;20990;-70
2023/10/01 04:43:16;;;;;;;7.77;2.60;;;;;;;;;;4997694;28;20465;-70
2023/10/01 04:45:45;;;;;;;5.60;2.67;;;;;;;;;;4994582;28;20538;-71
2023/10/01 04:48:16;;;;;;;6.93;2.50;;;;;;;;;;4994473;28;20441;-70
2023/10/01 04:50:44;;;;;;;12.03;4.40;;;;;;;;;;4994174;28;20501;-70
2023/10/01 04:53:13;;;;;;;6.50;3.10;;;;;;;;;;4997104;28;20464;-71
2023/10/01 04:55:42;;;;;;;5.73;2.80;;;;;;;;;;5004877;28;20464;-72
2023/10/01 04:58:12;;;;;;;9.67;3.17;;;;;;;;;;4994235;28;20449;-70
2023/10/01 05:00:39;;;;;;;4.57;2.63;;;;;;;;;;4994297;28;20447;-70
2023/10/01 05:03:10;;;;;;;7.30;3.20;;;;;;;;;;4994009;28;20536;-71
2023/10/01 05:05:37;;;;;;;5.23;1.97;;;;;;;;;;5007742;28;20492;-70
2023/10/01 05:08:05;;;;;;;10.13;3.20;;;;;;;;;;5012691;28;20436;-70
2023/10/01 05:10:50;;;;;;;5.30;2.40;;;;;;;;;;4999157;28;20605;-70
2023/10/01 05:13:20;;;;;;;8.90;2.73;;;;;;;;;;4994101;28;20925;-70
2023/10/01 05:15:49;;;;;;;5.80;2.30;;;;;;;;;;4994022;28;20457;-71
2023/10/01 05:18:17;;;;;;;4.90;2.20;;;;;;;;;;4997104;28;20495;-70
2023/10/01 05:20:48;;;;;;;6.57;3.63;;;;;;;;;;5011173;28;20444;-70
2023/10/01 05:23:15;;;;;;;5.50;2.90;;;;;;;;;;4999518;28;20478;-71
2023/10/01 05:25:45;;;;;;;5.50;3.20;;;;;;;;;;4996929;28;20448;-71
2023/10/01 05:28:23;;;;;;;4.83;2.63;;;;;;;;;;4992547;28;20491;-70
2023/10/01 05:30:57;;;;;;;7.27;2.97;;;;;;;;;;5007993;28;20469;-74
2023/10/01 05:33:27;;;;;;;6.27;2.30;;;;;;;;;;4992545;28;20431;-73
2023/10/01 05:35:57;;;;;;;4.57;2.10;;;;;;;;;;4994441;28;20448;-74
2023/10/01 05:38:26;;;;;;;10.40;3.20;;;;;;;;;;4999266;28;20998;-74
2023/10/01 05:40:54;;;;;;;7.90;2.63;;;;;;;;;;4997573;28;20434;-74
2023/10/01 05:43:27;;;;;;;7.00;3.43;;;;;;;;;;4994260;28;20459;-74
2023/10/01 05:45:54;;;;;;;7.60;2.63;;;;;;;;;;4993564;28;20528;-75
2023/10/01 05:48:23;;;;;;;5.23;2.47;;;;;;;;;;4993970;28;20860;-74
2023/10/01 05:50:52;;;;;;;10.37;4.80;;;;;;;;;;4993969;28;20473;-74
2023/10/01 05:53:19;;;;;;;6.03;2.40;;;;;;;;;;5001885;28;20833;-74
2023/10/01 05:55:46;;;;;;;7.23;2.90;;;;;;;;;;4999676;28;20464;-74
2023/10/01 05:58:21;;;;;;;6.87;3.47;;;;;;;;;;5013195;28;20498;-73
2023/10/01 06:00:56;;;;;;;6.30;3.10;;;;;;;;;;5011205;28;20519;-73
2023/10/01 06:03:24;;;;;;;5.70;2.60;;;;;;;;;;4993088;28;20444;-73
2023/10/01 06:05:57;;;;;;;6.03;3.13;;;;;;;;;;4993806;28;20499;-74
2023/10/01 06:08:25;;;;;;;5.23;2.33;;;;;;;;;;5008340;28;20472;-74
2023/10/01 06:11:15;;;;;;;7.67;2.80;;;;;;;;;;4998554;28;20472;-73
2023/10/01 06:13:48;;;;;;;6.77;3.13;;;;;;;;;;4992096;28;20445;-74
2023/10/01 06:16:16;;;;;;;5.07;2.40;;;;;;;;;;4993793;28;20523;-73
2023/10/01 06:18:49;;;;;;;6.30;3.50;;;;;;;;;;4993452;28;20461;-75
2023/10/01 06:21:18;;;;;;;8.60;2.93;;;;;;;;;;4995553;28;20488;-74
2023/10/01 06:23:52;;;;;;;8.40;4.27;;;;;;;;;;5000315;28;20507;-75
2023/10/01 06:26:20;;;;;;;8.40;3.87;;;;;;;;;;5012150;28;20428;-72
2023/10/01 06:28:48;;;;;;;6.80;2.23;;;;;;;;;;4993339;28;20967;-69
2023/10/01 06:31:16;;;;;;;6.13;2.73;;;;;;;;;;4993255;28;20567;-69
2023/10/01 06:33:44;;;;;;;4.80;2.70;;;;;;;;;;4993222;28;20453;-69
2023/10/01 06:36:19;;;;;;;7.40;3.70;;;;;;;;;;5003492;28;20923;-68
2023/10/01 06:38:48;;;;;;;6.83;3.50;;;;;;;;;;5012481;28;20966;-70
2023/10/01 06:41:18;;;;;;;6.87;2.90;;;;;;;;;;4994045;28;20433;-68
2023/10/01 06:43:48;;;;;;;15.40;5.63;;;;;;;;;;4993196;28;20476;-69
2023/10/01 06:46:17;;;;;;;8.10;3.83;;;;;;;;;;4992490;28;20479;-67
2023/10/01 06:48:47;;;;;;;5.43;3.13;;;;;;;;;;4993490;28;20468;-68
2023/10/01 06:51:14;;;;;;;5.93;3.10;;;;;;;;;;5006004;28;20479;-70
2023/10/01 06:53:47;;;;;;;4.47;3.00;;;;;;;;;;4992775;28;20501;-70
2023/10/01 06:56:17;;;;;;;5.00;2.67;;;;;;;;;;4992933;28;20516;-68
2023/10/01 06:59:12;;;;;;;5.43;3.17;;;;;;;;;;4992862;28;20544;-68
2023/10/01 07:01:35;;;;;;;5.03;2.40;;;;;;;;;;4992402;28;20955;-68
2023/10/01 07:04:02;;;;;;;7.40;2.90;;;;;;;;;;4993289;28;20468;-68
2023/10/01 07:06:29;;;;;;;5.20;3.30;;;;;;;;;;5000448;28;20456;-68
2023/10/01 07:08:56;;;;;;;7.90;3.23;;;;;;;;;;4992462;28;20800;-69
2023/10/01 07:11:26;;;;;;;4.43;2.80;;;;;;;;;;4984126;28;20469;-69
2023/10/01 07:13:55;;;;;;;4.53;2.73;;;;;;;;;;4992486;28;20440;-68
2023/10/01 07:16:36;;;;;;;8.27;2.97;;;;;;;;;;4992196;28;20445;-69
2023/10/01 07:19:05;;;;;;;4.67;2.90;;;;;;;;;;4997604;28;20508;-68
2023/10/01 07:21:33;;;;;;;7.27;2.90;;;;;;;;;;4991980;28;20932;-68
2023/10/01 07:24:00;;;;;;;8.10;3.80;;;;;;;;;;4992690;28;20830;-68
2023/10/01 07:26:30;;;;;;;6.47;3.00;;;;;;;;;;4992268;28;20449;-69
2023/10/01 07:28:57;;;;;;;6.57;3.70;;;;;;;;;;4992348;28;20472;-67
2023/10/01 07:31:25;;;;;;;5.53;2.80;;;;;;;;;;4990629;28;20476;-68
2023/10/01 07:33:54;;;;;;;5.87;2.83;;;;;;;;;;4994944;28;20472;-69
2023/10/01 07:36:23;;;;;;;5.53;2.90;;;;;;;;;;4996634;28;20452;-69
2023/10/01 07:38:52;;;;;;;8.33;3.00;;;;;;;;;;4996326;28;20491;-70
2023/10/01 07:41:20;;;;;;;4.90;2.50;;;;;;;;;;4995938;28;20437;-69
2023/10/01 07:43:49;;;;;;;8.67;3.73;;;;;;;;;;4996327;28;21155;-70
2023/10/01 07:46:18;;;;;;;7.03;3.83;;;;;;;;;;4998115;28;20901;-69
2023/10/01 07:48:49;;;;;;;4.23;2.70;;;;;;;;;;4998273;28;20814;-70
2023/10/01 07:51:26;;;;;;;8.17;3.13;;;;;;;;;;4996083;28;20469;-69
2023/10/01 07:53:53;;;;;;;10.20;3.23;;;;;;;;;;4997374;28;20503;-70
2023/10/01 07:56:22;;;;;;;8.73;3.80;;;;;;;;;;5014849;28;20440;-70
2023/10/01 07:58:56;;;;;;;8.70;3.53;;;;;;;;;;5003892;28;20519;-70
2023/10/01 08:01:42;;;;;;;9.07;3.83;;;;;;;;;;4996063;28;20488;-69
2023/10/01 08:04:38;;;;;;;8.57;3.50;;;;;;;;;;5004168;28;20500;-70
2023/10/01 08:07:05;;;;;;;8.93;3.03;;;;;;;;;;5015194;28;20440;-70
2023/10/01 08:09:33;;;;;;;8.40;3.67;;;;;;;;;;4997967;28;20473;-70
2023/10/01 08:12:05;;;;;;;9.60;6.10;;;;;;;;;;4995710;28;20481;-69
2023/10/01 08:14:33;;;;;;;11.33;5.23;;;;;;;;;;4995591;28;20547;-69
2023/10/01 08:17:00;;;;;;;16.87;6.80;;;;;;;;;;4994017;28;20457;-69
2023/10/01 08:19:44;;;;;;;8.93;3.70;;;;;;;;;;4994168;28;20819;-67
2023/10/01 08:22:23;;;;;;;5.83;3.10;;;;;;;;;;4996432;28;20848;-68
2023/10/01 08:24:50;;;;;;;9.40;4.40;;;;;;;;;;4994668;28;20904;-68
2023/10/01 08:27:29;;;;;;;7.10;3.73;;;;;;;;;;4995587;28;20443;-67
2023/10/01 08:30:17;;;;;;;7.00;3.53;;;;;;;;;;4995142;28;20518;-67
2023/10/01 08:32:49;;;;;;;9.70;4.90;;;;;;;;;;4998560;28;20545;-68
2023/10/01 08:35:22;;;;;;;6.33;3.53;;;;;;;;;;4976002;28;20855;-70
2023/10/01 08:37:59;;;;;;;9.07;4.00;;;;;;;;;;4977482;28;20434;-67
2023/10/01 08:40:27;;;;;;;7.03;3.60;;;;;;;;;;4995034;28;20451;-66
2023/10/01 08:42:58;;;;;;;6.00;3.57;;;;;;;;;;4994699;28;20896;-68
2023/10/01 08:45:34;;;;;;;6.97;3.53;;;;;;;;;;5012715;28;20808;-68
2023/10/01 08:48:02;;;;;;;7.17;3.50;;;;;;;;;;5014758;28;20502;-68
2023/10/01 08:50:31;;;;;;;7.03;2.87;;;;;;;;;;5014401;28;20878;-69
2023/10/01 08:53:00;;;;;;;5.90;2.73;;;;;;;;;;4997141;28;20485;-67
2023/10/01 08:55:35;;;;;;;9.00;3.43;;;;;;;;;;4994791;28;20449;-68
2023/10/01 08:58:13;;;;;;;5.50;3.37;;;;;;;;;;4985790;28;20454;-68
2023/10/01 09:00:48;;;;;;;7.77;3.50;;;;;;;;;;5006644;28;20575;-67
2023/10/01 09:03:26;;;;;;;6.13;3.50;;;;;;;;;;4995164;28;20448;-67
2023/10/01 09:06:01;;;;;;;6.73;3.40;;;;;;;;;;4995086;28;20484;-69
2023/10/01 09:08:31;;;;;;;6.60;3.83;;;;;;;;;;4994357;28;20804;-68
2023/10/01 09:10:59;;;;;;;10.00;3.83;;;;;;;;;;4994184;28;20503;-67
2023/10/01 09:13:30;;;;;;;7.20;3.77;;;;;;;;;;5006221;28;20546;-67
2023/10/01 09:16:10;;;;;;;4.43;2.87;;;;;;;;;;5013812;28;20433;-69
2023/10/01 09:18:39;;;;;;;8.73;3.60;;;;;;;;;;5014576;28;20500;-69
2023/10/01 09:21:09;;;;;;;7.70;3.30;;;;;;;;;;5012646;28;20498;-69
2023/10/01 09:24:11;;;;;;;8.70;4.40;;;;;;;;;;4995007;28;20433;-69
2023/10/01 09:26:42;;;;;;;8.63;3.63;;;;;;;;;;4996897;28;20464;-69
2023/10/01 09:29:21;;;;;;;7.00;3.60;;;;;;;;;;4994935;28;20468;-69
2023/10/01 09:31:53;;;;;;;6.57;3.10;;;;;;;;;;4994866;28;20503;-68
2023/10/01 09:34:33;;;;;;;7.53;3.20;;;;;;;;;;4994469;28;20453;-69
2023/10/01 09:37:02;;;;;;;7.97;3.80;;;;;;;;;;4995947;28;20452;-69
2023/10/01 09:39:38;;;;;;;7.03;3.20;;;;;;;;;;5006143;28;20472;-69
2023/10/01 09:42:22;;;;;;;7.80;3.97;;;;;;;;;;4996484;28;20488;-69
2023/10/01 09:44:49;;;;;;;6.93;2.93;;;;;;;;;;5011245;28;20622;-69
2023/10/01 09:47:18;;;;;;;7.33;3.60;;;;;;;;;;5013950;28;20498;-71
2023/10/01 09:49:47;;;;;;;7.17;3.47;;;;;;;;;;5008103;28;20457;-70
2023/10/01 09:52:26;;;;;;;6.87;3.33;;;;;;;;;;4994048;28;20530;-69
2023/10/01 09:54:55;;;;;;;7.63;3.40;;;;;;;;;;4992570;28;20441;-69
2023/10/01 09:57:24;;;;;;;5.67;2.47;;;;;;;;;;5005339;28;20460;-69
2023/10/01 09:59:52;;;;;;;5.17;2.93;;;;;;;;;;4998021;28;20492;-67
2023/10/01 10:02:27;;;;;;;7.70;3.10;;;;;;;;;;4992751;28;20924;-69
2023/10/01 10:04:55;;;;;;;10.87;4.00;;;;;;;;;;4998868;28;20798;-69
2023/10/01 10:07:24;;;;;;;5.60;3.83;;;;;;;;;;5009182;28;20535;-69
2023/10/01 10:09:54;;;;;;;4.97;3.00;;;;;;;;;;4993413;28;20489;-71
2023/10/01 10:12:33;;;;;;;7.50;2.93;;;;;;;;;;4982349;28;20481;-68
2023/10/01 10:15:00;;;;;;;4.20;2.50;;;;;;;;;;4993312;28;20460;-68
2023/10/01 10:17:51;;;;;;;8.20;3.10;;;;;;;;;;5005218;28;20539;-67
2023/10/01 10:20:26;;;;;;;5.70;2.43;;;;;;;;;;5013278;28;20456;-68
2023/10/01 10:23:13;;;;;;;12.60;3.37;;;;;;;;;;5000423;28;20501;-65
2023/10/01 10:25:40;;;;;;;5.70;3.10;;;;;;;;;;4994839;28;20440;-67
2023/10/01 10:28:09;;;;;;;6.37;3.73;;;;;;;;;;4994168;28;20465;-68
2023/10/01 10:30:41;;;;;;;7.97;3.70;;;;;;;;;;4995147;28;20448;-69
2023/10/01 10:33:29;;;;;;;6.93;3.57;;;;;;;;;;4998469;28;20994;-68
2023/10/01 10:36:12;;;;;;;6.50;3.67;;;;;;;;;;4993413;28;20569;-69
2023/10/01 10:38:51;;;;;;;6.13;3.77;;;;;;;;;;4992398;28;20538;-69
2023/10/01 10:41:17;;;;;;;7.83;3.80;;;;;;;;;;4996305;28;20504;-68
2023/10/01 10:44:07;;;;;;;7.43;3.33;;;;;;;;;;4991509;28;20471;-68
2023/10/01 10:46:48;;;;;;;6.03;3.33;;;;;;;;;;4981806;28;20453;-69
2023/10/01 10:49:17;;;;;;;6.97;3.00;;;;;;;;;;4993588;28;20467;-69
2023/10/01 10:51:47;;;;;;;6.20;3.13;;;;;;;;;;4993346;28;20480;-68
2023/10/01 10:54:16;;;;;;;4.87;4.10;;;;;;;;;;4992629;28;20452;-68
2023/10/01 10:56:44;;;;;;;9.60;4.73;;;;;;;;;;4996196;28;20456;-69
2023/10/01 10:59:14;;;;;;;6.50;3.43;;;;;;;;;;5013259;28;20483;-68
2023/10/01 11:01:44;;;;;;;7.73;3.10;;;;;;;;;;5010011;28;20454;-68
2023/10/01 11:04:12;;;;;;;10.80;5.20;;;;;;;;;;4993057;28;20437;-69
2023/10/01 11:06:42;;;;;;;7.23;3.67;;;;;;;;;;4992972;28;20445;-69
2023/10/01 11:09:24;;;;;;;6.63;3.47;;;;;;;;;;4986178;28;20567;-68
2023/10/01 11:11:52;;;;;;;8.13;3.90;;;;;;;;;;4994249;28;20607;-67
2023/10/01 11:14:20;;;;;;;6.83;3.40;;;;;;;;;;5001936;28;20441;-68
2023/10/01 11:16:48;;;;;;;7.00;3.33;;;;;;;;;;4991959;28;20460;-68
2023/10/01 11:19:16;;;;;;;6.80;3.33;;;;;;;;;;4989209;28;20476;-68
2023/10/01 11:22:00;;;;;;;5.70;3.27;;;;;;;;;;4990852;28;20468;-67
2023/10/01 11:24:30;;;;;;;8.57;3.50;;;;;;;;;;5004703;28;20532;-66
2023/10/01 11:27:14;;;;;;;11.83;3.83;;;;;;;;;;4998890;28;20464;-68
2023/10/01 11:29:42;;;;;;;4.90;2.73;;;;;;;;;;4994099;28;20505;-67
2023/10/01 11:32:16;;;;;;;7.27;2.77;;;;;;;;;;5001987;28;20480;-67
2023/10/01 11:34:44;;;;;;;6.90;3.60;;;;;;;;;;4995464;28;20943;-68
2023/10/01 11:37:19;;;;;;;7.37;3.77;;;;;;;;;;4995920;28;20947;-68
2023/10/01 11:39:52;;;;;;;7.70;3.00;;;;;;;;;;4992514;28;20460;-68
2023/10/01 11:42:35;;;;;;;6.77;3.40;;;;;;;;;;4994120;28;20480;-67
2023/10/01 11:45:12;;;;;;;8.93;4.23;;;;;;;;;;5004130;28;20451;-69
2023/10/01 11:48:04;;;;;;;9.53;3.80;;;;;;;;;;4993358;28;20503;-68
2023/10/01 11:50:32;;;;;;;7.53;4.07;;;;;;;;;;4993992;28;20871;-68
2023/10/01 11:53:16;;;;;;;10.60;3.60;;;;;;;;;;4991553;28;20480;-68
2023/10/01 11:55:44;;;;;;;6.33;2.97;;;;;;;;;;4993150;28;20443;-67
2023/10/01 11:58:16;;;;;;;9.53;3.50;;;;;;;;;;4994953;28;20518;-67
2023/10/01 12:00:59;;;;;;;6.70;3.27;;;;;;;;;;4992273;28;20477;-66
2023/10/01 12:03:26;;;;;;;5.50;3.23;;;;;;;;;;4989651;28;20449;-67
2023/10/01 12:05:56;;;;;;;5.47;2.90;;;;;;;;;;4994948;28;20444;-68
2023/10/01 12:08:35;;;;;;;8.20;3.57;;;;;;;;;;4991480;28;20469;-67
2023/10/01 12:11:26;;;;;;;6.50;3.73;;;;;;;;;;4980870;28;20499;-67
2023/10/01 12:14:05;;;;;;;6.47;2.97;;;;;;;;;;4992699;28;20815;-68
2023/10/01 12:16:32;;;;;;;8.03;2.90;;;;;;;;;;4992217;28;20452;-67
2023/10/01 12:19:22;;;;;;;7.13;3.20;;;;;;;;;;4992190;28;20990;-67
2023/10/01 12:21:48;;;;;;;8.10;3.53;;;;;;;;;;4976098;28;20999;-67
2023/10/01 12:24:16;;;;;;;6.93;3.90;;;;;;;;;;4986284;28;20453;-67
2023/10/01 12:26:47;;;;;;;7.17;3.53;;;;;;;;;;5009252;28;20471;-67
2023/10/01 12:29:14;;;;;;;10.07;3.50;;;;;;;;;;4995799;28;20488;-68
2023/10/01 12:31:44;;;;;;;8.10;3.50;;;;;;;;;;4995966;28;20455;-68
2023/10/01 12:34:11;;;;;;;9.60;3.83;;;;;;;;;;4995643;28;20433;-69
2023/10/01 12:36:44;;;;;;;6.93;3.70;;;;;;;;;;4997551;28;20441;-68
2023/10/01 12:39:27;;;;;;;5.90;3.77;;;;;;;;;;4998425;28;20476;-67
2023/10/01 12:41:57;;;;;;;9.30;3.80;;;;;;;;;;4996452;28;20479;-67
2023/10/01 12:44:28;;;;;;;10.90;4.10;;;;;;;;;;5000276;28;20495;-67
2023/10/01 12:46:55;;;;;;;11.73;4.33;;;;;;;;;;4995596;28;20864;-67
2023/10/01 12:49:22;;;;;;;5.27;3.17;;;;;;;;;;4995283;28;20552;-68
2023/10/01 12:51:48;;;;;;;4.93;2.93;;;;;;;;;;4995510;28;20858;-67
2023/10/01 12:54:18;;;;;;;9.83;3.60;;;;;;;;;;4995598;28;20453;-67
2023/10/01 12:56:48;;;;;;;6.43;3.07;;;;;;;;;;4994669;28;20476;-68
2023/10/01 12:59:19;;;;;;;7.07;3.20;;;;;;;;;;4995125;28;20476;-67
2023/10/01 13:01:50;;;;;;;11.50;3.07;;;;;;;;;;4995022;28;20441;-67
2023/10/01 13:04:21;;;;;;;7.93;3.73;;;;;;;;;;4995789;28;20444;-67
2023/10/01 13:06:47;;;;;;;7.30;3.57;;;;;;;;;;4995263;28;20441;-70
2023/10/01 13:11:59;;;;;;;7.37;3.10;;;;;;;;;;4993161;28;20880;-69
2023/10/01 13:14:31;;;;;;;7.83;3.63;;;;;;;;;;4994451;28;20449;-68
2023/10/01 13:17:01;;;;;;;8.27;3.57;;;;;;;;;;4994618;28;20807;-67
2023/10/01 13:19:33;;;;;;;6.00;2.87;;;;;;;;;;4993959;28;20472;-68
2023/10/01 13:22:03;;;;;;;6.80;2.87;;;;;;;;;;4994762;28;20449;-68
2023/10/01 13:24:31;;;;;;;6.43;3.30;;;;;;;;;;4994840;28;20495;-68
2023/10/01 13:27:10;;;;;;;12.47;5.23;;;;;;;;;;4994529;28;20465;-68
2023/10/01 13:29:38;;;;;;;9.43;3.80;;;;;;;;;;4993796;28;20491;-66
2023/10/01 13:32:15;;;;;;;6.47;3.17;;;;;;;;;;4993685;28;20449;-68
2023/10/01 13:34:49;;;;;;;8.50;3.30;;;;;;;;;;4993855;28;20527;-68
2023/10/01 13:40:29;;;;;;;11.80;4.00;;;;;;;;;;4993505;28;20998;-66
2023/10/01 14:10:57;;;;;;;6.50;3.13;;;;;;;;;;4993497;28;20463;-67
2023/10/01 14:13:29;;;;;;;9.60;3.80;;;;;;;;;;4993998;28;20488;-68
2023/10/01 14:16:11;;;;;;;9.07;3.93;;;;;;;;;;5001197;28;20443;-68
2023/10/01 14:18:40;;;;;;;7.50;3.33;;;;;;;;;;4996546;28;20591;-68
2023/10/01 14:21:13;;;;;;;9.57;3.80;;;;;;;;;;4994620;28;20445;-68
2023/10/01 14:23:43;;;;;;;8.43;3.43;;;;;;;;;;4993736;28;20441;-68
2023/10/01 14:26:13;;;;;;;6.77;2.90;;;;;;;;;;4993642;28;20473;-67
2023/10/01 14:28:45;;;;;;;8.77;3.77;;;;;;;;;;4992807;28;20548;-68
2023/10/01 14:31:12;;;;;;;6.53;3.03;;;;;;;;;;4993229;28;20547;-68
2023/10/01 14:33:44;;;;;;;7.70;3.40;;;;;;;;;;4991665;28;20487;-68
2023/10/01 14:36:14;;;;;;;9.27;3.87;;;;;;;;;;4993662;28;20452;-68
2023/10/01 14:38:41;;;;;;;7.40;3.60;;;;;;;;;;4993045;28;20475;-69
2023/10/01 14:41:10;;;;;;;8.03;4.10;;;;;;;;;;4993417;28;20866;-68
2023/10/01 14:43:48;;;;;;;8.53;3.70;;;;;;;;;;4992497;28;20441;-68
2023/10/01 14:46:18;;;;;;;6.13;2.80;;;;;;;;;;4994377;28;20512;-68
2023/10/01 14:48:48;;;;;;;6.60;3.23;;;;;;;;;;4995302;28;20471;-68
2023/10/01 14:51:16;;;;;;;7.20;3.70;;;;;;;;;;4996850;28;20436;-68
2023/10/01 14:53:43;;;;;;;5.57;3.27;;;;;;;;;;4994310;28;21002;-67
2023/10/01 14:56:11;;;;;;;9.10;4.33;;;;;;;;;;4994744;28;20448;-68
2023/10/01 14:58:39;;;;;;;8.23;3.73;;;;;;;;;;4993028;28;20468;-67
2023/10/01 15:01:08;;;;;;;11.47;4.63;;;;;;;;;;4993216;28;20445;-66
2023/10/01 15:03:37;;;;;;;9.53;4.20;;;;;;;;;;4992583;28;20450;-67
2023/10/01 15:06:07;;;;;;;11.65;5.20;;;;;;;;;;4992619;28;20675;-67
2023/10/01 15:08:35;;;;;;;8.73;4.00;;;;;;;;;;5068610;22;20865;-65
2023/10/01 15:11:11;;;;;;;9.13;3.80;;;;;;;;;;5032837;28;20196;-65
2023/10/01 15:13:39;;;;;;;8.68;4.70;;;;;;;;;;5045626;28;20730;-65
2023/10/01 15:16:08;;;;;;;7.47;3.80;;;;;;;;;;5032744;28;20807;-66
2023/10/01 15:18:40;;;;;;;6.28;3.45;;;;;;;;;;5034655;28;20306;-65
2023/10/01 15:21:19;;;;;;;6.28;3.83;;;;;;;;;;5043475;28;20196;-64
2023/10/01 15:23:46;;;;;;;7.70;4.05;;;;;;;;;;5031854;28;20184;-65
2023/10/01 15:26:14;;;;;;;7.47;4.65;;;;;;;;;;5032040;28;20204;-65
2023/10/01 15:28:50;;;;;;;8.02;3.67;;;;;;;;;;5035920;28;20219;-65
2023/10/01 15:31:20;;;;;;;5.82;2.97;;;;;;;;;;5039308;28;20730;-65
2023/10/01 15:34:00;;;;;;;7.38;4.00;;;;;;;;;;5044315;28;20219;-65
2023/10/01 15:36:40;;;;;;;7.63;3.50;;;;;;;;;;5045760;28;20226;-65
2023/10/01 15:39:14;;;;;;;6.50;3.97;;;;;;;;;;5037777;28;20231;-65
2023/10/01 15:41:42;;;;;;;6.68;3.88;;;;;;;;;;5047216;28;20203;-65
2023/10/01 15:44:09;;;;;;;7.78;3.58;;;;;;;;;;5043627;28;20233;-65
2023/10/01 15:46:40;;;;;;;7.18;4.47;;;;;;;;;;5049089;28;20205;-65
2023/10/01 15:49:18;;;;;;;7.20;3.67;;;;;;;;;;5043217;28;20214;-64
2023/10/01 15:51:46;;;;;;;8.75;3.75;;;;;;;;;;5042744;28;20201;-64
2023/10/01 15:54:22;;;;;;;4.93;3.25;;;;;;;;;;5037407;28;20598;-65
2023/10/01 15:56:50;;;;;;;10.85;3.95;;;;;;;;;;5034847;28;20709;-65